createdAt,value
2023-01-03T00:00:32.119Z,1006.03
2023-01-03T00:01:03.526Z,1006.03
2023-01-03T00:01:35.480Z,1006.03
2023-01-03T00:02:07.566Z,1006.03
2023-01-03T00:02:34.497Z,1005.82
2023-01-03T00:02:55.472Z,1005.82
2023-01-03T00:03:27.548Z,1005.82
2023-01-03T00:04:00.382Z,1006.03
2023-01-03T00:04:31.600Z,1006.03
2023-01-03T00:05:03.879Z,1005.82
2023-01-03T00:05:35.492Z,1005.82
2023-01-03T00:06:07.512Z,1005.93
2023-01-03T00:06:35.178Z,1006.03
2023-01-03T00:06:55.465Z,1006.03
2023-01-03T00:07:27.466Z,1006.03
2023-01-03T00:07:59.444Z,1006.03
2023-01-03T00:08:31.507Z,1006.03
2023-01-03T00:09:03.478Z,1006.03
2023-01-03T00:09:35.642Z,1006.03
2023-01-03T00:10:07.793Z,1006.03
2023-01-03T00:10:35.369Z,1005.93
2023-01-03T00:10:55.797Z,1005.93
2023-01-03T00:11:27.551Z,1005.93
2023-01-03T00:11:59.502Z,1006.03
2023-01-03T00:12:31.712Z,1006.03
2023-01-03T00:13:03.480Z,1005.82
2023-01-03T00:13:36.832Z,1005.82
2023-01-03T00:14:07.517Z,1005.93
2023-01-03T00:14:35.406Z,1005.82
2023-01-03T00:14:55.474Z,1005.82
2023-01-03T00:15:28.059Z,1005.82
2023-01-03T00:15:59.486Z,1006.03
2023-01-03T00:16:31.545Z,1006.03
2023-01-03T00:17:03.680Z,1005.72
2023-01-03T00:17:35.485Z,1005.72
2023-01-03T00:18:07.488Z,1005.82
2023-01-03T00:18:35.798Z,1005.93
2023-01-03T00:18:55.469Z,1005.93
2023-01-03T00:19:27.481Z,1005.93
2023-01-03T00:19:59.995Z,1006.03
2023-01-03T00:20:31.765Z,1006.03
2023-01-03T00:21:03.498Z,1005.93
2023-01-03T00:21:35.550Z,1005.93
2023-01-03T00:22:07.503Z,1006.03
2023-01-03T00:22:35.540Z,1006.03
2023-01-03T00:22:55.480Z,1006.03
2023-01-03T00:23:27.465Z,1006.03
2023-01-03T00:23:59.463Z,1005.82
2023-01-03T00:24:31.525Z,1005.82
2023-01-03T00:25:03.715Z,1005.82
2023-01-03T00:25:35.574Z,1005.82
2023-01-03T00:26:07.504Z,1005.93
2023-01-03T00:26:35.393Z,1006.03
2023-01-03T00:26:55.513Z,1006.03
2023-01-03T00:27:27.525Z,1006.03
2023-01-03T00:27:59.493Z,1006.13
2023-01-03T00:28:31.508Z,1006.13
2023-01-03T00:29:03.490Z,1006.03
2023-01-03T00:29:36.226Z,1006.03
2023-01-03T00:30:08.397Z,1005.82
2023-01-03T00:30:35.505Z,1005.93
2023-01-03T00:30:55.840Z,1005.93
2023-01-03T00:31:27.582Z,1005.93
2023-01-03T00:31:59.447Z,1006.03
2023-01-03T00:32:31.487Z,1006.03
2023-01-03T00:33:03.463Z,1006.03
2023-01-03T00:33:35.577Z,1006.03
2023-01-03T00:34:07.522Z,1006.03
2023-01-03T00:34:35.377Z,1005.82
2023-01-03T00:34:58.924Z,1005.82
2023-01-03T00:35:27.783Z,1005.82
2023-01-03T00:36:00.424Z,1006.03
2023-01-03T00:36:31.565Z,1006.03
2023-01-03T00:37:03.465Z,1006.13
2023-01-03T00:37:35.504Z,1006.13
2023-01-03T00:38:07.557Z,1006.03
2023-01-03T00:38:35.364Z,1005.72
2023-01-03T00:38:55.476Z,1005.72
2023-01-03T00:39:27.468Z,1005.72
2023-01-03T00:39:59.463Z,1006.13
2023-01-03T00:40:31.818Z,1006.13
2023-01-03T00:41:03.453Z,1006.13
2023-01-03T00:41:35.495Z,1006.13
2023-01-03T00:42:07.503Z,1006.03
2023-01-03T00:42:35.404Z,1005.82
2023-01-03T00:42:55.504Z,1005.82
2023-01-03T00:43:27.627Z,1005.82
2023-01-03T00:43:59.598Z,1005.82
2023-01-03T00:44:31.554Z,1005.82
2023-01-03T00:45:04.074Z,1006.33
2023-01-03T00:45:36.061Z,1006.33
2023-01-03T00:46:07.938Z,1006.03
2023-01-03T00:46:35.387Z,1006.03
2023-01-03T00:46:55.428Z,1006.03
2023-01-03T00:47:27.472Z,1006.03
2023-01-03T00:47:59.461Z,1006.03
2023-01-03T00:48:31.513Z,1006.03
2023-01-03T00:49:03.474Z,1006.13
2023-01-03T00:49:35.775Z,1006.13
2023-01-03T00:50:07.879Z,1006.13
2023-01-03T00:50:35.380Z,1006.13
2023-01-03T00:50:55.788Z,1006.13
2023-01-03T00:51:27.502Z,1006.13
2023-01-03T00:52:00.121Z,1006.03
2023-01-03T00:52:31.515Z,1006.03
2023-01-03T00:53:03.596Z,1006.03
2023-01-03T00:53:35.495Z,1006.03
2023-01-03T00:54:07.587Z,1006.03
2023-01-03T00:54:35.498Z,1005.82
2023-01-03T00:54:55.453Z,1005.82
2023-01-03T00:55:27.749Z,1005.82
2023-01-03T00:55:59.461Z,1006.03
2023-01-03T00:56:31.501Z,1006.03
2023-01-03T00:57:03.476Z,1006.13
2023-01-03T00:57:35.477Z,1006.13
2023-01-03T00:58:07.594Z,1006.23
2023-01-03T00:58:35.395Z,1006.03
2023-01-03T00:58:55.543Z,1006.03
2023-01-03T00:59:27.492Z,1006.03
2023-01-03T00:59:59.489Z,1005.82
2023-01-03T01:00:32.081Z,1005.82
2023-01-03T01:01:03.471Z,1006.03
2023-01-03T01:01:43.919Z,1006.03
2023-01-03T01:02:07.691Z,1005.93
2023-01-03T01:02:35.552Z,1006.03
2023-01-03T01:02:55.647Z,1006.03
2023-01-03T01:03:27.748Z,1006.03
2023-01-03T01:03:59.505Z,1006.13
2023-01-03T01:04:31.503Z,1006.13
2023-01-03T01:05:03.704Z,1006.03
2023-01-03T01:05:35.477Z,1006.03
2023-01-03T01:06:07.558Z,1006.03
2023-01-03T01:06:35.385Z,1006.13
2023-01-03T01:06:55.473Z,1006.13
2023-01-03T01:07:27.496Z,1006.13
2023-01-03T01:08:00.118Z,1006.13
2023-01-03T01:08:31.523Z,1006.13
2023-01-03T01:09:03.461Z,1006.23
2023-01-03T01:09:35.504Z,1006.23
2023-01-03T01:10:07.950Z,1006.23
2023-01-03T01:10:35.423Z,1006.13
2023-01-03T01:10:55.737Z,1006.13
2023-01-03T01:11:27.506Z,1006.13
2023-01-03T01:11:59.457Z,1006.13
2023-01-03T01:12:31.521Z,1006.13
2023-01-03T01:13:03.433Z,1006.13
2023-01-03T01:13:35.632Z,1006.13
2023-01-03T01:14:07.598Z,1006.33
2023-01-03T01:14:35.378Z,1006.13
2023-01-03T01:14:55.472Z,1006.13
2023-01-03T01:15:28.020Z,1006.13
2023-01-03T01:15:59.541Z,1006.23
2023-01-03T01:16:31.561Z,1006.23
2023-01-03T01:17:03.461Z,1006.23
2023-01-03T01:17:36.379Z,1006.23
2023-01-03T01:18:07.588Z,1006.33
2023-01-03T01:18:35.675Z,1006.23
2023-01-03T01:18:55.498Z,1006.23
2023-01-03T01:19:27.488Z,1006.23
2023-01-03T01:19:59.481Z,1006.23
2023-01-03T01:20:31.816Z,1006.23
2023-01-03T01:21:03.475Z,1006.13
2023-01-03T01:21:35.674Z,1006.13
2023-01-03T01:22:07.610Z,1006.13
2023-01-03T01:22:35.844Z,1006.43
2023-01-03T01:22:55.513Z,1006.43
2023-01-03T01:23:27.538Z,1006.43
2023-01-03T01:24:00.204Z,1006.43
2023-01-03T01:24:31.562Z,1006.43
2023-01-03T01:25:03.770Z,1006.33
2023-01-03T01:25:35.497Z,1006.33
2023-01-03T01:26:07.654Z,1006.23
2023-01-03T01:26:35.393Z,1006.33
2023-01-03T01:26:55.482Z,1006.33
2023-01-03T01:27:27.441Z,1006.33
2023-01-03T01:27:59.472Z,1006.33
2023-01-03T01:28:31.477Z,1006.33
2023-01-03T01:29:03.448Z,1006.23
2023-01-03T01:29:35.465Z,1006.23
2023-01-03T01:30:08.253Z,1006.53
2023-01-03T01:30:35.380Z,1006.53
2023-01-03T01:30:55.831Z,1006.53
2023-01-03T01:31:27.684Z,1006.53
2023-01-03T01:31:59.517Z,1006.43
2023-01-03T01:32:31.487Z,1006.43
2023-01-03T01:33:03.484Z,1006.33
2023-01-03T01:33:36.195Z,1006.33
2023-01-03T01:34:07.664Z,1006.33
2023-01-03T01:34:35.391Z,1006.43
2023-01-03T01:34:55.480Z,1006.43
2023-01-03T01:35:27.777Z,1006.43
2023-01-03T01:35:59.470Z,1006.53
2023-01-03T01:36:31.480Z,1006.53
2023-01-03T01:37:03.489Z,1006.53
2023-01-03T01:37:35.470Z,1006.53
2023-01-03T01:38:07.685Z,1006.43
2023-01-03T01:38:35.404Z,1006.53
2023-01-03T01:38:55.472Z,1006.53
2023-01-03T01:39:27.519Z,1006.53
2023-01-03T01:39:59.990Z,1006.53
2023-01-03T01:40:32.207Z,1006.53
2023-01-03T01:41:03.742Z,1006.33
2023-01-03T01:41:35.534Z,1006.33
2023-01-03T01:42:07.806Z,1006.43
2023-01-03T01:42:35.460Z,1006.33
2023-01-03T01:42:55.580Z,1006.33
2023-01-03T01:43:27.566Z,1006.33
2023-01-03T01:43:59.645Z,1006.33
2023-01-03T01:44:31.575Z,1006.33
2023-01-03T01:45:04.622Z,1006.33
2023-01-03T01:45:36.538Z,1006.33
2023-01-03T01:46:10.397Z,1006.64
2023-01-03T01:46:35.657Z,1006.43
2023-01-03T01:46:56.047Z,1006.43
2023-01-03T01:47:27.758Z,1006.43
2023-01-03T01:47:59.691Z,1006.43
2023-01-03T01:48:31.740Z,1006.43
2023-01-03T01:49:03.552Z,1006.64
2023-01-03T01:49:36.431Z,1006.64
2023-01-03T01:50:07.992Z,1006.64
2023-01-03T01:50:35.848Z,1006.53
2023-01-03T01:50:57.626Z,1006.53
2023-01-03T01:51:27.643Z,1006.53
2023-01-03T01:51:59.482Z,1006.53
2023-01-03T01:52:31.532Z,1006.53
2023-01-03T01:53:03.596Z,1006.43
2023-01-03T01:53:35.694Z,1006.43
2023-01-03T01:54:08.111Z,1006.43
2023-01-03T01:54:35.371Z,1006.43
2023-01-03T01:54:55.544Z,1006.43
2023-01-03T01:55:27.829Z,1006.43
2023-01-03T01:56:00.020Z,1006.53
2023-01-03T01:56:31.543Z,1006.53
2023-01-03T01:57:03.501Z,1006.53
2023-01-03T01:57:35.544Z,1006.53
2023-01-03T01:58:07.811Z,1006.74
2023-01-03T01:58:35.704Z,1006.53
2023-01-03T01:58:55.511Z,1006.53
2023-01-03T01:59:27.517Z,1006.53
2023-01-03T01:59:59.524Z,1006.74
2023-01-03T02:00:32.266Z,1006.74
2023-01-03T02:01:03.467Z,1006.64
2023-01-03T02:01:35.698Z,1006.64
2023-01-03T02:02:07.842Z,1006.53
2023-01-03T02:02:35.520Z,1006.64
2023-01-03T02:02:55.657Z,1006.64
2023-01-03T02:03:27.637Z,1006.64
2023-01-03T02:03:59.527Z,1006.74
2023-01-03T02:04:31.551Z,1006.74
2023-01-03T02:05:03.874Z,1006.64
2023-01-03T02:05:36.218Z,1006.64
2023-01-03T02:06:07.735Z,1006.74
2023-01-03T02:06:35.429Z,1006.53
2023-01-03T02:06:55.533Z,1006.53
2023-01-03T02:07:27.534Z,1006.53
2023-01-03T02:07:59.513Z,1006.64
2023-01-03T02:08:31.876Z,1006.64
2023-01-03T02:09:03.521Z,1006.53
2023-01-03T02:09:35.598Z,1006.53
2023-01-03T02:10:08.109Z,1006.64
2023-01-03T02:10:35.422Z,1006.84
2023-01-03T02:10:55.814Z,1006.84
2023-01-03T02:11:27.574Z,1006.84
2023-01-03T02:12:00.433Z,1006.84
2023-01-03T02:12:31.553Z,1006.84
2023-01-03T02:13:03.489Z,1006.64
2023-01-03T02:13:35.638Z,1006.64
2023-01-03T02:14:07.905Z,1006.64
2023-01-03T02:14:35.522Z,1006.84
2023-01-03T02:14:55.526Z,1006.84
2023-01-03T02:15:28.157Z,1006.84
2023-01-03T02:15:59.594Z,1006.64
2023-01-03T02:16:31.581Z,1006.64
2023-01-03T02:17:03.507Z,1006.84
2023-01-03T02:17:35.552Z,1006.84
2023-01-03T02:18:07.758Z,1006.74
2023-01-03T02:18:35.477Z,1007.01
2023-01-03T02:18:55.576Z,1007.01
2023-01-03T02:19:27.504Z,1007.01
2023-01-03T02:19:59.528Z,1006.84
2023-01-03T02:20:31.827Z,1006.84
2023-01-03T02:21:03.525Z,1006.64
2023-01-03T02:21:36.047Z,1006.64
2023-01-03T02:22:07.811Z,1006.84
2023-01-03T02:22:35.674Z,1006.64
2023-01-03T02:22:55.498Z,1006.64
2023-01-03T02:23:27.507Z,1006.64
2023-01-03T02:23:59.496Z,1006.74
2023-01-03T02:24:31.509Z,1006.74
2023-01-03T02:25:03.815Z,1006.84
2023-01-03T02:25:35.575Z,1006.84
2023-01-03T02:26:07.798Z,1006.64
2023-01-03T02:26:35.405Z,1006.74
2023-01-03T02:26:55.616Z,1006.74
2023-01-03T02:27:27.537Z,1006.74
2023-01-03T02:28:00.454Z,1006.74
2023-01-03T02:28:31.548Z,1006.74
2023-01-03T02:29:03.530Z,1006.84
2023-01-03T02:29:35.578Z,1006.84
2023-01-03T02:30:08.516Z,1006.84
2023-01-03T02:30:35.485Z,1006.74
2023-01-03T02:30:55.883Z,1006.74
2023-01-03T02:31:27.538Z,1006.74
2023-01-03T02:31:59.528Z,1006.84
2023-01-03T02:32:31.912Z,1006.84
2023-01-03T02:33:03.503Z,1006.74
2023-01-03T02:33:35.661Z,1006.74
2023-01-03T02:34:07.815Z,1006.74
2023-01-03T02:34:35.592Z,1006.74
2023-01-03T02:34:55.616Z,1006.74
2023-01-03T02:35:27.833Z,1006.74
2023-01-03T02:36:00.319Z,1006.84
2023-01-03T02:36:31.532Z,1006.84
2023-01-03T02:37:03.505Z,1006.64
2023-01-03T02:37:35.581Z,1006.64
2023-01-03T02:38:07.775Z,1006.74
2023-01-03T02:38:35.754Z,1006.74
2023-01-03T02:38:55.524Z,1006.74
2023-01-03T02:39:27.481Z,1006.74
2023-01-03T02:39:59.460Z,1006.74
2023-01-03T02:40:31.770Z,1006.74
2023-01-03T02:41:03.495Z,1006.94
2023-01-03T02:41:35.495Z,1006.94
2023-01-03T02:42:07.748Z,1006.74
2023-01-03T02:42:35.385Z,1006.74
2023-01-03T02:42:55.474Z,1006.74
2023-01-03T02:43:27.471Z,1006.74
2023-01-03T02:43:59.503Z,1006.74
2023-01-03T02:44:31.523Z,1006.74
2023-01-03T02:45:04.082Z,1006.64
2023-01-03T02:45:37.031Z,1006.64
2023-01-03T02:46:08.219Z,1007.01
2023-01-03T02:46:35.508Z,1006.84
2023-01-03T02:46:55.530Z,1006.84
2023-01-03T02:47:27.472Z,1006.84
2023-01-03T02:47:59.473Z,1006.74
2023-01-03T02:48:31.588Z,1006.74
2023-01-03T02:49:03.484Z,1006.74
2023-01-03T02:49:35.494Z,1006.74
2023-01-03T02:50:08.016Z,1006.64
2023-01-03T02:50:35.595Z,1006.74
2023-01-03T02:50:55.795Z,1006.74
2023-01-03T02:51:27.471Z,1006.74
2023-01-03T02:52:00.119Z,1006.84
2023-01-03T02:52:31.499Z,1006.84
2023-01-03T02:53:03.565Z,1006.74
2023-01-03T02:53:35.477Z,1006.74
2023-01-03T02:54:07.727Z,1006.64
2023-01-03T02:54:35.392Z,1006.74
2023-01-03T02:54:55.472Z,1006.74
2023-01-03T02:55:27.753Z,1006.74
2023-01-03T02:55:59.539Z,1006.94
2023-01-03T02:56:31.485Z,1006.94
2023-01-03T02:57:03.504Z,1006.84
2023-01-03T02:57:35.488Z,1006.84
2023-01-03T02:58:07.766Z,1006.84
2023-01-03T02:58:35.367Z,1006.84
2023-01-03T02:58:55.533Z,1006.84
2023-01-03T02:59:27.547Z,1006.84
2023-01-03T03:00:00.034Z,1007.01
2023-01-03T03:00:32.077Z,1007.01
2023-01-03T03:01:03.495Z,1006.84
2023-01-03T03:01:36.749Z,1006.84
2023-01-03T03:02:07.905Z,1006.74
2023-01-03T03:02:35.663Z,1006.94
2023-01-03T03:02:55.564Z,1006.94
2023-01-03T03:03:27.546Z,1006.94
2023-01-03T03:03:59.519Z,1006.74
2023-01-03T03:04:31.507Z,1006.74
2023-01-03T03:05:03.719Z,1006.94
2023-01-03T03:05:35.486Z,1006.94
2023-01-03T03:06:07.781Z,1006.64
2023-01-03T03:06:35.343Z,1006.94
2023-01-03T03:06:55.530Z,1006.94
2023-01-03T03:07:27.553Z,1006.94
2023-01-03T03:08:03.214Z,1006.94
2023-01-03T03:08:31.507Z,1006.94
2023-01-03T03:09:03.486Z,1007.01
2023-01-03T03:09:35.504Z,1007.01
2023-01-03T03:10:08.138Z,1006.94
2023-01-03T03:10:35.372Z,1006.74
2023-01-03T03:10:55.821Z,1006.74
2023-01-03T03:11:27.476Z,1006.74
2023-01-03T03:11:59.479Z,1006.94
2023-01-03T03:12:31.477Z,1006.94
2023-01-03T03:13:03.457Z,1006.84
2023-01-03T03:13:35.504Z,1006.84
2023-01-03T03:14:07.865Z,1007.11
2023-01-03T03:14:35.391Z,1007.01
2023-01-03T03:14:55.482Z,1007.01
2023-01-03T03:15:28.112Z,1007.01
2023-01-03T03:15:59.621Z,1006.84
2023-01-03T03:16:31.603Z,1006.84
2023-01-03T03:17:03.477Z,1007.11
2023-01-03T03:17:38.322Z,1007.11
2023-01-03T03:18:07.797Z,1006.84
2023-01-03T03:18:35.563Z,1006.74
2023-01-03T03:18:55.474Z,1006.74
2023-01-03T03:19:27.591Z,1006.74
2023-01-03T03:20:04.523Z,1006.94
2023-01-03T03:20:31.806Z,1006.94
2023-01-03T03:21:03.443Z,1006.94
2023-01-03T03:21:35.495Z,1006.94
2023-01-03T03:22:07.807Z,1006.84
2023-01-03T03:22:35.430Z,1006.84
2023-01-03T03:22:55.520Z,1006.84
2023-01-03T03:23:27.531Z,1006.84
2023-01-03T03:24:00.399Z,1006.94
2023-01-03T03:24:31.503Z,1006.94
2023-01-03T03:25:03.757Z,1007.01
2023-01-03T03:25:35.489Z,1007.01
2023-01-03T03:26:07.901Z,1006.74
2023-01-03T03:26:35.404Z,1006.84
2023-01-03T03:26:55.760Z,1006.84
2023-01-03T03:27:27.496Z,1006.84
2023-01-03T03:27:59.496Z,1006.64
2023-01-03T03:28:31.512Z,1006.64
2023-01-03T03:29:03.480Z,1006.84
2023-01-03T03:29:35.471Z,1006.84
2023-01-03T03:30:08.465Z,1006.84
2023-01-03T03:30:36.164Z,1007.01
2023-01-03T03:30:55.857Z,1007.01
2023-01-03T03:31:27.725Z,1007.01
2023-01-03T03:31:59.527Z,1007.01
2023-01-03T03:32:31.595Z,1007.01
2023-01-03T03:33:03.501Z,1006.84
2023-01-03T03:33:35.554Z,1006.84
2023-01-03T03:34:07.914Z,1006.84
2023-01-03T03:34:35.483Z,1006.94
2023-01-03T03:34:55.473Z,1006.94
2023-01-03T03:35:27.780Z,1006.94
2023-01-03T03:36:00.130Z,1007.01
2023-01-03T03:36:31.479Z,1007.01
2023-01-03T03:37:03.484Z,1006.74
2023-01-03T03:37:35.602Z,1006.74
2023-01-03T03:38:07.923Z,1006.94
2023-01-03T03:38:35.436Z,1007.11
2023-01-03T03:38:55.483Z,1007.11
2023-01-03T03:39:27.567Z,1007.11
2023-01-03T03:39:59.506Z,1007.01
2023-01-03T03:40:32.362Z,1007.01
2023-01-03T03:41:03.498Z,1007.01
2023-01-03T03:41:35.577Z,1007.01
2023-01-03T03:42:07.900Z,1007.01
2023-01-03T03:42:35.762Z,1007.01
2023-01-03T03:42:55.497Z,1007.01
2023-01-03T03:43:27.499Z,1007.01
2023-01-03T03:43:59.482Z,1007.11
2023-01-03T03:44:31.515Z,1007.11
2023-01-03T03:45:04.026Z,1007.01
2023-01-03T03:45:37.147Z,1007.01
2023-01-03T03:46:08.145Z,1006.84
2023-01-03T03:46:35.442Z,1007.11
2023-01-03T03:46:55.921Z,1007.11
2023-01-03T03:47:27.518Z,1007.11
2023-01-03T03:47:59.513Z,1006.84
2023-01-03T03:48:31.513Z,1006.84
2023-01-03T03:49:03.452Z,1006.94
2023-01-03T03:49:35.578Z,1006.94
2023-01-03T03:50:08.160Z,1006.94
2023-01-03T03:50:35.414Z,1006.94
2023-01-03T03:50:55.708Z,1006.94
2023-01-03T03:51:27.513Z,1006.94
2023-01-03T03:52:00.360Z,1007.11
2023-01-03T03:52:31.525Z,1007.11
2023-01-03T03:53:03.454Z,1006.94
2023-01-03T03:53:35.597Z,1006.94
2023-01-03T03:54:07.981Z,1007.11
2023-01-03T03:54:35.357Z,1007.01
2023-01-03T03:54:55.533Z,1007.01
2023-01-03T03:55:27.745Z,1007.01
2023-01-03T03:55:59.519Z,1006.94
2023-01-03T03:56:31.501Z,1006.94
2023-01-03T03:57:03.505Z,1007.01
2023-01-03T03:57:35.577Z,1007.01
2023-01-03T03:58:07.941Z,1006.94
2023-01-03T03:58:35.435Z,1006.94
2023-01-03T03:58:55.929Z,1006.94
2023-01-03T03:59:27.474Z,1006.94
2023-01-03T03:59:59.467Z,1007.01
2023-01-03T04:00:32.505Z,1007.01
2023-01-03T04:01:03.540Z,1007.01
2023-01-03T04:01:36.277Z,1007.01
2023-01-03T04:02:07.978Z,1006.94
2023-01-03T04:02:35.394Z,1006.94
2023-01-03T04:02:55.686Z,1006.94
2023-01-03T04:03:27.592Z,1006.94
2023-01-03T04:03:59.560Z,1006.94
2023-01-03T04:04:31.617Z,1006.94
2023-01-03T04:05:03.874Z,1006.84
2023-01-03T04:05:35.825Z,1006.84
2023-01-03T04:06:07.954Z,1006.84
2023-01-03T04:06:35.413Z,1006.94
2023-01-03T04:06:55.485Z,1006.94
2023-01-03T04:07:27.484Z,1006.94
2023-01-03T04:08:00.438Z,1006.94
2023-01-03T04:08:31.497Z,1006.94
2023-01-03T04:09:03.476Z,1007.01
2023-01-03T04:09:35.549Z,1007.01
2023-01-03T04:10:08.247Z,1007.01
2023-01-03T04:10:37.834Z,1006.84
2023-01-03T04:10:55.910Z,1006.84
2023-01-03T04:11:27.538Z,1006.84
2023-01-03T04:11:59.518Z,1007.11
2023-01-03T04:12:31.894Z,1007.11
2023-01-03T04:13:03.516Z,1007.11
2023-01-03T04:13:35.544Z,1007.11
2023-01-03T04:14:07.997Z,1007.21
2023-01-03T04:14:35.349Z,1007.11
2023-01-03T04:14:55.531Z,1007.11
2023-01-03T04:15:28.011Z,1007.11
2023-01-03T04:15:59.635Z,1007.01
2023-01-03T04:16:31.618Z,1007.01
2023-01-03T04:17:03.488Z,1007.21
2023-01-03T04:17:36.387Z,1007.21
2023-01-03T04:18:07.990Z,1007.11
2023-01-03T04:18:35.658Z,1007.11
2023-01-03T04:18:55.515Z,1007.11
2023-01-03T04:19:27.509Z,1007.11
2023-01-03T04:19:59.590Z,1007.11
2023-01-03T04:20:31.874Z,1007.11
2023-01-03T04:21:03.470Z,1007.11
2023-01-03T04:21:35.756Z,1007.11
2023-01-03T04:22:07.974Z,1007.31
2023-01-03T04:22:35.752Z,1007.21
2023-01-03T04:22:55.496Z,1007.21
2023-01-03T04:23:27.474Z,1007.21
2023-01-03T04:24:03.070Z,1007.11
2023-01-03T04:24:31.477Z,1007.11
2023-01-03T04:25:03.752Z,1007.11
2023-01-03T04:25:35.632Z,1007.11
2023-01-03T04:26:08.029Z,1007.21
2023-01-03T04:26:35.379Z,1007.31
2023-01-03T04:26:55.528Z,1007.31
2023-01-03T04:27:27.477Z,1007.31
2023-01-03T04:27:59.513Z,1007.11
2023-01-03T04:28:31.965Z,1007.11
2023-01-03T04:29:03.531Z,1007.21
2023-01-03T04:29:38.990Z,1007.21
2023-01-03T04:30:08.678Z,1007.01
2023-01-03T04:30:35.421Z,1007.21
2023-01-03T04:30:55.753Z,1007.21
2023-01-03T04:31:27.555Z,1007.21
2023-01-03T04:31:59.550Z,1007.21
2023-01-03T04:32:31.533Z,1007.21
2023-01-03T04:33:03.478Z,1007.01
2023-01-03T04:33:35.629Z,1007.01
2023-01-03T04:34:07.956Z,1007.31
2023-01-03T04:34:35.333Z,1007.11
2023-01-03T04:34:55.504Z,1007.11
2023-01-03T04:35:27.858Z,1007.11
2023-01-03T04:36:00.276Z,1007.11
2023-01-03T04:36:31.528Z,1007.11
2023-01-03T04:37:03.534Z,1007.21
2023-01-03T04:37:35.611Z,1007.21
2023-01-03T04:38:07.904Z,1007.42
2023-01-03T04:38:35.772Z,1007.01
2023-01-03T04:38:55.515Z,1007.01
2023-01-03T04:39:27.501Z,1007.01
2023-01-03T04:39:59.515Z,1007.31
2023-01-03T04:40:31.842Z,1007.31
2023-01-03T04:41:03.550Z,1007.11
2023-01-03T04:41:35.658Z,1007.11
2023-01-03T04:42:08.091Z,1007.31
2023-01-03T04:42:35.756Z,1007.11
2023-01-03T04:42:55.510Z,1007.11
2023-01-03T04:43:27.521Z,1007.11
2023-01-03T04:43:59.529Z,1007.01
2023-01-03T04:44:31.496Z,1007.01
2023-01-03T04:45:04.134Z,1007.31
2023-01-03T04:45:36.513Z,1007.31
2023-01-03T04:46:16.512Z,1007.21
2023-01-03T04:46:35.343Z,1007.31
2023-01-03T04:46:55.507Z,1007.31
2023-01-03T04:47:27.468Z,1007.31
2023-01-03T04:47:59.484Z,1007.01
2023-01-03T04:48:31.480Z,1007.01
2023-01-03T04:49:03.509Z,1007.11
2023-01-03T04:49:35.551Z,1007.11
2023-01-03T04:50:08.244Z,1007.31
2023-01-03T04:50:35.346Z,1007.21
2023-01-03T04:50:55.694Z,1007.21
2023-01-03T04:51:27.512Z,1007.21
2023-01-03T04:52:01.230Z,1007.21
2023-01-03T04:52:31.570Z,1007.21
2023-01-03T04:53:03.497Z,1007.21
2023-01-03T04:53:35.528Z,1007.21
2023-01-03T04:54:08.311Z,1007.21
2023-01-03T04:54:35.322Z,1007.21
2023-01-03T04:54:55.508Z,1007.21
2023-01-03T04:55:27.723Z,1007.21
2023-01-03T04:55:59.503Z,1007.42
2023-01-03T04:56:31.473Z,1007.42
2023-01-03T04:57:03.502Z,1007.21
2023-01-03T04:57:35.546Z,1007.21
2023-01-03T04:58:08.021Z,1007.21
2023-01-03T04:58:35.362Z,1007.31
2023-01-03T04:58:55.550Z,1007.31
2023-01-03T04:59:27.458Z,1007.31
2023-01-03T04:59:59.527Z,1007.31
2023-01-03T05:00:32.139Z,1007.31
2023-01-03T05:01:03.601Z,1007.52
2023-01-03T05:01:36.472Z,1007.52
2023-01-03T05:02:07.209Z,1007.21
2023-01-03T05:02:34.879Z,1007.21
2023-01-03T05:02:55.692Z,1007.21
2023-01-03T05:03:28.016Z,1007.21
2023-01-03T05:03:59.105Z,1007.31
2023-01-03T05:04:31.151Z,1007.31
2023-01-03T05:05:03.541Z,1007.31
2023-01-03T05:05:34.981Z,1007.31
2023-01-03T05:06:09.102Z,1007.31
2023-01-03T05:06:35.484Z,1007.42
2023-01-03T05:06:57.046Z,1007.42
2023-01-03T05:07:27.601Z,1007.42
2023-01-03T05:08:00.385Z,1007.31
2023-01-03T05:08:31.535Z,1007.31
2023-01-03T05:09:03.964Z,1007.21
2023-01-03T05:09:35.579Z,1007.21
2023-01-03T05:10:07.833Z,1007.31
2023-01-03T05:10:35.319Z,1007.42
2023-01-03T05:10:55.740Z,1007.42
2023-01-03T05:11:27.508Z,1007.42
2023-01-03T05:11:59.511Z,1007.31
2023-01-03T05:12:31.496Z,1007.31
2023-01-03T05:13:04.051Z,1007.42
2023-01-03T05:13:35.589Z,1007.42
2023-01-03T05:14:12.557Z,1007.42
2023-01-03T05:14:35.316Z,1007.31
2023-01-03T05:14:55.551Z,1007.31
2023-01-03T05:15:28.150Z,1007.31
2023-01-03T05:15:59.588Z,1007.21
2023-01-03T05:16:31.503Z,1007.21
2023-01-03T05:17:04.139Z,1007.31
2023-01-03T05:17:38.411Z,1007.31
2023-01-03T05:18:07.517Z,1007.52
2023-01-03T05:18:35.296Z,1007.21
2023-01-03T05:18:55.530Z,1007.21
2023-01-03T05:19:27.550Z,1007.21
2023-01-03T05:19:59.549Z,1007.11
2023-01-03T05:20:31.835Z,1007.11
2023-01-03T05:21:03.984Z,1007.31
2023-01-03T05:21:35.588Z,1007.31
2023-01-03T05:22:07.509Z,1007.21
2023-01-03T05:22:35.343Z,1007.42
2023-01-03T05:22:55.486Z,1007.42
2023-01-03T05:23:27.566Z,1007.42
2023-01-03T05:24:00.233Z,1006.94
2023-01-03T05:24:31.530Z,1006.94
2023-01-03T05:25:04.270Z,1007.21
2023-01-03T05:25:35.567Z,1007.21
2023-01-03T05:26:07.608Z,1007.31
2023-01-03T05:26:35.357Z,1007.42
2023-01-03T05:26:55.497Z,1007.42
2023-01-03T05:27:27.539Z,1007.42
2023-01-03T05:27:59.506Z,1007.31
2023-01-03T05:28:31.505Z,1007.31
2023-01-03T05:29:03.930Z,1007.31
2023-01-03T05:29:35.534Z,1007.31
2023-01-03T05:30:08.099Z,1007.52
2023-01-03T05:30:35.933Z,1007.21
2023-01-03T05:30:55.775Z,1007.21
2023-01-03T05:31:27.645Z,1007.21
2023-01-03T05:31:59.544Z,1007.52
2023-01-03T05:32:31.540Z,1007.52
2023-01-03T05:33:04.000Z,1007.31
2023-01-03T05:33:35.577Z,1007.31
2023-01-03T05:34:07.543Z,1007.52
2023-01-03T05:34:35.331Z,1007.11
2023-01-03T05:34:55.518Z,1007.11
2023-01-03T05:35:27.817Z,1007.11
2023-01-03T05:36:00.218Z,1007.62
2023-01-03T05:36:31.510Z,1007.62
2023-01-03T05:37:03.967Z,1007.52
2023-01-03T05:37:35.533Z,1007.52
2023-01-03T05:38:07.499Z,1007.42
2023-01-03T05:38:35.304Z,1007.52
2023-01-03T05:38:55.531Z,1007.52
2023-01-03T05:39:27.633Z,1007.52
2023-01-03T05:39:59.490Z,1007.42
2023-01-03T05:40:37.673Z,1007.42
2023-01-03T05:41:03.927Z,1007.62
2023-01-03T05:41:35.540Z,1007.62
2023-01-03T05:42:07.493Z,1007.52
2023-01-03T05:42:35.723Z,1007.52
2023-01-03T05:42:55.510Z,1007.52
2023-01-03T05:43:27.594Z,1007.52
2023-01-03T05:43:59.505Z,1007.31
2023-01-03T05:44:31.500Z,1007.31
2023-01-03T05:45:04.472Z,1007.52
2023-01-03T05:45:36.483Z,1007.52
2023-01-03T05:46:07.857Z,1007.42
2023-01-03T05:46:35.636Z,1007.42
2023-01-03T05:46:55.538Z,1007.42
2023-01-03T05:47:27.595Z,1007.42
2023-01-03T05:47:59.535Z,1007.52
2023-01-03T05:48:31.532Z,1007.52
2023-01-03T05:49:03.975Z,1007.62
2023-01-03T05:49:37.649Z,1007.62
2023-01-03T05:50:07.874Z,1007.52
2023-01-03T05:50:35.326Z,1007.52
2023-01-03T05:50:55.918Z,1007.52
2023-01-03T05:51:27.585Z,1007.52
2023-01-03T05:52:00.594Z,1007.52
2023-01-03T05:52:31.536Z,1007.52
2023-01-03T05:53:03.975Z,1007.52
2023-01-03T05:53:36.000Z,1007.52
2023-01-03T05:54:07.510Z,1007.52
2023-01-03T05:54:35.320Z,1007.42
2023-01-03T05:54:55.525Z,1007.42
2023-01-03T05:55:27.859Z,1007.42
2023-01-03T05:55:59.530Z,1007.42
2023-01-03T05:56:31.580Z,1007.42
2023-01-03T05:57:04.020Z,1007.52
2023-01-03T05:57:35.864Z,1007.52
2023-01-03T05:58:07.513Z,1007.21
2023-01-03T05:58:35.334Z,1007.31
2023-01-03T05:58:55.574Z,1007.31
2023-01-03T05:59:27.566Z,1007.31
2023-01-03T05:59:59.511Z,1007.31
2023-01-03T06:00:32.142Z,1007.31
2023-01-03T06:01:03.973Z,1007.52
2023-01-03T06:01:36.406Z,1007.52
2023-01-03T06:02:07.689Z,1007.52
2023-01-03T06:02:35.408Z,1007.31
2023-01-03T06:02:55.889Z,1007.31